Kansas City Weather
 
Daily Summary for September 25, 2016 Units:  English    Metric   Both
« Previous Day
Next Day »
Daily Weekly Monthly Yearly Custom
  Current: High: Low: Average:
Temperature: 61.7 °F 69.4 °F 61.0 °F 66.8 °F
Dew Point: 56.8 °F 68.4 °F 56.8 °F 65.8 °F
Humidity: 84 % 99 % 84 % 97 %
Wind Speed: 2.2 mph 8.3 mph 0.0 mph 1.6 mph
Wind:NNW - - WSW
Pressure: 30.05 in 30.06 in 29.90 in -
Precipitation: 0.51 in      
Historical Graphs
 
 
Webcam
Webcam
Radar
600 Mile Radar
300 Mile Radar
Tabular Data for September 25, 2016
Time Temperature Dew Point Pressure Wind Wind Speed Wind Gust Humidity solar
00:12 69.4 °F 68.2 °F 29.93 in WNW 4.7 mph -999.0 mph 96 % 0 in
00:27 68.7 °F 68.4 °F 29.93 in Calm   -999.0 mph 99 % 0 in
00:43 68.5 °F 68.2 °F 29.92 in Calm   -999.0 mph 99 % 0 in
00:58 68.5 °F 68.2 °F 29.90 in Calm   -999.0 mph 99 % 0 in
01:13 68.5 °F 68.2 °F 29.91 in Calm   -999.0 mph 99 % 0 in
01:29 68.5 °F 68.2 °F 29.91 in Calm   -999.0 mph 99 % 0 in
01:44 68.7 °F 68.4 °F 29.92 in Calm   -999.0 mph 99 % 0 in
01:59 68.7 °F 68.4 °F 29.92 in Calm   -999.0 mph 99 % 0 in
02:14 68.7 °F 68.4 °F 29.91 in Calm   -999.0 mph 99 % 0 in
02:30 68.7 °F 68.4 °F 29.91 in Calm   -999.0 mph 99 % 0 in
02:45 68.7 °F 68.4 °F 29.91 in Calm   -999.0 mph 99 % 0 in
03:00 68.7 °F 68.4 °F 29.91 in Calm   -999.0 mph 99 % 0 in
03:15 68.5 °F 68.2 °F 29.92 in Calm   -999.0 mph 99 % 0 in
03:31 68.4 °F 68.1 °F 29.92 in Calm   -999.0 mph 99 % 0 in
03:46 68.2 °F 67.9 °F 29.91 in Calm   -999.0 mph 99 % 0 in
04:01 68.0 °F 67.7 °F 29.91 in Calm   -999.0 mph 99 % 0 in
04:16 67.8 °F 67.5 °F 29.91 in NW 1.7 mph -999.0 mph 99 % 0 in
04:31 67.6 °F 67.3 °F 29.91 in Calm   -999.0 mph 99 % 0 in
04:46 67.6 °F 67.3 °F 29.90 in North 1.7 mph -999.0 mph 99 % 0 in
05:02 67.6 °F 67.3 °F 29.90 in Calm   -999.0 mph 99 % 0 in
05:17 67.6 °F 67.3 °F 29.92 in Calm   -999.0 mph 99 % 0 in
05:48 67.3 °F 67.0 °F 29.92 in NW 2.2 mph -999.0 mph 99 % 0 in
06:03 67.3 °F 67.0 °F 29.93 in NW 3.7 mph -999.0 mph 99 % 0 in
06:18 67.3 °F 67.0 °F 29.93 in NW 2.2 mph -999.0 mph 99 % 0 in
06:33 67.5 °F 67.2 °F 29.93 in NW 1.7 mph -999.0 mph 99 % 0 in
06:48 67.5 °F 67.2 °F 29.93 in WNW 1.7 mph -999.0 mph 99 % 0 in
07:04 67.5 °F 67.2 °F 29.94 in Calm   -999.0 mph 99 % 0 in
07:19 67.6 °F 67.3 °F 29.94 in NW 1.1 mph -999.0 mph 99 % 0 in
07:34 67.8 °F 67.5 °F 29.95 in NW 1.7 mph -999.0 mph 99 % 0 in
07:50 67.8 °F 67.5 °F 29.95 in NW 2.2 mph -999.0 mph 99 % 0 in
08:05 67.8 °F 67.5 °F 29.96 in NW 2.2 mph -999.0 mph 99 % 0 in
08:20 67.8 °F 67.5 °F 29.98 in NW 2.2 mph -999.0 mph 99 % 0 in
08:35 67.8 °F 67.5 °F 29.99 in North 1.1 mph -999.0 mph 99 % 0 in
08:51 68.0 °F 67.7 °F 29.99 in Calm   -999.0 mph 99 % 0 in
09:21 68.4 °F 68.1 °F 30.01 in NNW 1.1 mph -999.0 mph 99 % 0 in
09:36 68.5 °F 68.2 °F 30.00 in NW 1.1 mph -999.0 mph 99 % 0 in
09:51 68.5 °F 68.2 °F 30.01 in WNW 2.2 mph -999.0 mph 99 % 0 in
10:07 68.5 °F 68.2 °F 30.01 in NNW 3.2 mph -999.0 mph 99 % 0 in
10:22 68.4 °F 68.1 °F 30.02 in NNE 3.7 mph -999.0 mph 99 % 0 in
10:37 66.2 °F 64.4 °F 30.03 in NW 4.7 mph -999.0 mph 94 % 0 in
10:52 65.3 °F 64.4 °F 30.03 in SSW 2.7 mph -999.0 mph 97 % 0 in
11:07 64.4 °F 62.0 °F 30.03 in North 2.7 mph -999.0 mph 92 % 0 in
11:22 63.5 °F 61.1 °F 30.05 in Calm   -999.0 mph 92 % 0 in
11:37 63.1 °F 61.6 °F 30.05 in NW 2.2 mph -999.0 mph 95 % 0 in
11:53 62.6 °F 60.2 °F 30.05 in WNW 3.7 mph -999.0 mph 92 % 0 in
12:08 61.9 °F 57.7 °F 30.05 in NNW 8.3 mph -999.0 mph 86 % 0 in
12:23 61.0 °F 57.7 °F 30.05 in West 2.7 mph -999.0 mph 89 % 0 in
12:38 61.0 °F 58.4 °F 30.05 in North 2.7 mph -999.0 mph 91 % 0 in
12:54 61.3 °F 58.0 °F 30.05 in NE 1.1 mph -999.0 mph 89 % 0 in
13:09 61.5 °F 57.3 °F 30.06 in NNW 4.7 mph -999.0 mph 86 % 0 in
13:24 61.5 °F 56.9 °F 30.05 in NW 2.7 mph -999.0 mph 85 % 0 in
13:39 61.7 °F 56.8 °F 30.05 in NNW 2.2 mph -999.0 mph 84 % 0 in
Kansas City Weather
Compliments of Weather Underground - 1 mb